SQP705 LUKK-LTFJ
Flight info
| Callsign | SQP705 |
|---|---|
| Flight time | 1h 15m |
| Altitude | 32000 |
| Route | LIPT3K LIPTA KODRU RIPGA PILAT LUGEB MATEL L620 GINLI GINL1H |
| Aircraft | B738/M-SDE2EFG/LB1 |
Departure
| Time | 2026-05-09 11:45 |
|---|---|
| Airport | Chişinău International Airport (LUKK) |
Arrival
| Time | 2026-05-09 13:01 |
|---|---|
| Airport | Istanbul Sabiha Gökçen International Airport (LTFJ) |
| Time | Latitude | Longitude | Altitude | Speed | Heading |
|---|---|---|---|---|---|
| 2026-05-09 11:04 | 46.93481 | 28.93319 | 339 ft | 0 kts | 97° |
| 2026-05-09 11:35 | 46.93479 | 28.93331 | 338 ft | 3 kts | 99° |
| 2026-05-09 11:36 | 46.93468 | 28.93369 | 333 ft | 6 kts | 122° |
| 2026-05-09 11:36 | 46.93443 | 28.93427 | 333 ft | 7 kts | 122° |
| 2026-05-09 11:36 | 46.93404 | 28.93475 | 333 ft | 8 kts | 168° |
| 2026-05-09 11:36 | 46.93352 | 28.93474 | 329 ft | 7 kts | 184° |
| 2026-05-09 11:37 | 46.93301 | 28.93467 | 332 ft | 7 kts | 186° |
| 2026-05-09 11:37 | 46.93243 | 28.93457 | 334 ft | 9 kts | 188° |
| 2026-05-09 11:37 | 46.93203 | 28.93448 | 335 ft | 9 kts | 188° |
| 2026-05-09 11:37 | 46.93157 | 28.93402 | 337 ft | 8 kts | 246° |
| 2026-05-09 11:38 | 46.93159 | 28.93318 | 339 ft | 9 kts | 277° |
| 2026-05-09 11:38 | 46.93170 | 28.93188 | 350 ft | 15 kts | 277° |
| 2026-05-09 11:38 | 46.93182 | 28.93039 | 345 ft | 14 kts | 277° |
| 2026-05-09 11:38 | 46.93194 | 28.92895 | 350 ft | 14 kts | 278° |
| 2026-05-09 11:39 | 46.93207 | 28.92758 | 350 ft | 13 kts | 278° |
| 2026-05-09 11:39 | 46.93219 | 28.92624 | 352 ft | 14 kts | 276° |
| 2026-05-09 11:39 | 46.93231 | 28.92469 | 355 ft | 17 kts | 276° |
| 2026-05-09 11:40 | 46.93257 | 28.92136 | 364 ft | 16 kts | 277° |
| 2026-05-09 11:40 | 46.93200 | 28.92026 | 370 ft | 15 kts | 196° |
| 2026-05-09 11:40 | 46.93100 | 28.91989 | 370 ft | 14 kts | 186° |
| 2026-05-09 11:40 | 46.93002 | 28.91994 | 373 ft | 14 kts | 178° |
| 2026-05-09 11:41 | 46.92907 | 28.91994 | 378 ft | 13 kts | 179° |
| 2026-05-09 11:41 | 46.92806 | 28.91997 | 382 ft | 14 kts | 179° |
| 2026-05-09 11:41 | 46.92748 | 28.91939 | 384 ft | 9 kts | 257° |
| 2026-05-09 11:41 | 46.92751 | 28.91803 | 387 ft | 24 kts | 268° |
| 2026-05-09 11:42 | 46.92745 | 28.91485 | 396 ft | 31 kts | 268° |
| 2026-05-09 11:42 | 46.92739 | 28.91179 | 402 ft | 29 kts | 268° |
| 2026-05-09 11:42 | 46.92736 | 28.90901 | 406 ft | 19 kts | 279° |
| 2026-05-09 11:42 | 46.92756 | 28.90771 | 406 ft | 10 kts | 249° |
| 2026-05-09 11:43 | 46.92734 | 28.90757 | 407 ft | 1 kts | 156° |
| 2026-05-09 11:43 | 46.92733 | 28.90768 | 406 ft | 1 kts | 100° |
| 2026-05-09 11:43 | 46.92733 | 28.90788 | 406 ft | 0 kts | 89° |
| 2026-05-09 11:43 | 46.92733 | 28.90789 | 406 ft | 0 kts | 89° |
| 2026-05-09 11:44 | 46.92733 | 28.90819 | 403 ft | 8 kts | 88° |
| 2026-05-09 11:44 | 46.92737 | 28.91029 | 405 ft | 48 kts | 88° |
| 2026-05-09 11:44 | 46.92754 | 28.91844 | 386 ft | 113 kts | 88° |
| 2026-05-09 11:45 | 46.92772 | 28.93305 | 364 ft | 167 kts | 89° |
| 2026-05-09 11:45 | 46.92804 | 28.95107 | 817 ft | 184 kts | 89° |
| 2026-05-09 11:45 | 46.92843 | 28.97018 | 1538 ft | 192 kts | 90° |
| 2026-05-09 11:45 | 46.92887 | 28.99035 | 2154 ft | 203 kts | 90° |
| 2026-05-09 11:46 | 46.92933 | 29.01212 | 2352 ft | 225 kts | 91° |
| 2026-05-09 11:46 | 46.92979 | 29.03600 | 2556 ft | 245 kts | 90° |
| 2026-05-09 11:46 | 46.92723 | 29.06090 | 2937 ft | 252 kts | 117° |
| 2026-05-09 11:46 | 46.91629 | 29.08064 | 3459 ft | 254 kts | 147° |
| 2026-05-09 11:47 | 46.89996 | 29.08955 | 4058 ft | 253 kts | 176° |
| 2026-05-09 11:47 | 46.88260 | 29.08532 | 4646 ft | 259 kts | 205° |
| 2026-05-09 11:47 | 46.86842 | 29.06908 | 5299 ft | 263 kts | 226° |
| 2026-05-09 11:47 | 46.85705 | 29.04788 | 5911 ft | 267 kts | 232° |
| 2026-05-09 11:48 | 46.84637 | 29.02550 | 6500 ft | 271 kts | 233° |
| 2026-05-09 11:48 | 46.83568 | 29.00271 | 7084 ft | 273 kts | 233° |
| 2026-05-09 11:48 | 46.82487 | 28.97982 | 7709 ft | 274 kts | 233° |
| 2026-05-09 11:48 | 46.81395 | 28.95690 | 8345 ft | 276 kts | 233° |
| 2026-05-09 11:49 | 46.80283 | 28.93381 | 8968 ft | 279 kts | 232° |
| 2026-05-09 11:49 | 46.79159 | 28.91061 | 9638 ft | 281 kts | 232° |
| 2026-05-09 11:49 | 46.78021 | 28.88723 | 10239 ft | 284 kts | 232° |
| 2026-05-09 11:49 | 46.76837 | 28.86304 | 10465 ft | 303 kts | 232° |
| 2026-05-09 11:50 | 46.75570 | 28.83723 | 10611 ft | 322 kts | 232° |
| 2026-05-09 11:50 | 46.74228 | 28.80993 | 10746 ft | 340 kts | 232° |
| 2026-05-09 11:50 | 46.72817 | 28.78123 | 10887 ft | 357 kts | 232° |
| 2026-05-09 11:50 | 46.71333 | 28.75108 | 11006 ft | 374 kts | 232° |
| 2026-05-09 11:51 | 46.69790 | 28.71975 | 11187 ft | 387 kts | 232° |
| 2026-05-09 11:51 | 46.68207 | 28.68762 | 11589 ft | 392 kts | 232° |
| 2026-05-09 11:51 | 46.66612 | 28.65528 | 12114 ft | 394 kts | 232° |
| 2026-05-09 11:51 | 46.64980 | 28.62228 | 12645 ft | 397 kts | 232° |
| 2026-05-09 11:52 | 46.63359 | 28.58962 | 13141 ft | 400 kts | 232° |
| 2026-05-09 11:52 | 46.61439 | 28.56013 | 13607 ft | 401 kts | 216° |
| 2026-05-09 11:52 | 46.59165 | 28.53691 | 14130 ft | 403 kts | 213° |
| 2026-05-09 11:52 | 46.56860 | 28.51359 | 14609 ft | 405 kts | 213° |
| 2026-05-09 11:53 | 46.54544 | 28.48991 | 15116 ft | 408 kts | 214° |
| 2026-05-09 11:53 | 46.52208 | 28.46578 | 15639 ft | 411 kts | 214° |
| 2026-05-09 11:53 | 46.49892 | 28.44173 | 16147 ft | 414 kts | 214° |
| 2026-05-09 11:53 | 46.47546 | 28.41731 | 16643 ft | 416 kts | 214° |
| 2026-05-09 11:54 | 46.45187 | 28.39273 | 17113 ft | 419 kts | 214° |
| 2026-05-09 11:54 | 46.42809 | 28.36798 | 17572 ft | 422 kts | 214° |
| 2026-05-09 11:54 | 46.40423 | 28.34316 | 18038 ft | 424 kts | 214° |
| 2026-05-09 11:54 | 46.38016 | 28.31815 | 18460 ft | 427 kts | 214° |
| 2026-05-09 11:55 | 46.35595 | 28.29303 | 18839 ft | 429 kts | 214° |
| 2026-05-09 11:56 | 46.23280 | 28.16570 | 20715 ft | 441 kts | 214° |
| 2026-05-09 11:56 | 46.20696 | 28.14188 | 21060 ft | 442 kts | 206° |
| 2026-05-09 11:56 | 46.17876 | 28.12415 | 21384 ft | 444 kts | 198° |
| 2026-05-09 11:57 | 46.14888 | 28.11258 | 21707 ft | 446 kts | 189° |
| 2026-05-09 11:57 | 46.11812 | 28.10568 | 22068 ft | 448 kts | 188° |
| 2026-05-09 11:57 | 46.08716 | 28.09916 | 22341 ft | 452 kts | 188° |
| 2026-05-09 11:57 | 46.05583 | 28.09259 | 22508 ft | 457 kts | 188° |
| 2026-05-09 11:58 | 46.02429 | 28.08585 | 22761 ft | 460 kts | 188° |
| 2026-05-09 11:58 | 45.99251 | 28.07893 | 23084 ft | 462 kts | 188° |
| 2026-05-09 11:58 | 45.96068 | 28.07189 | 23360 ft | 463 kts | 188° |
| 2026-05-09 11:58 | 45.92836 | 28.06468 | 23600 ft | 466 kts | 189° |
| 2026-05-09 11:59 | 45.89668 | 28.05759 | 23811 ft | 468 kts | 189° |
| 2026-05-09 11:59 | 45.86451 | 28.05039 | 24045 ft | 469 kts | 189° |
| 2026-05-09 11:59 | 45.83229 | 28.04318 | 24314 ft | 469 kts | 189° |
| 2026-05-09 11:59 | 45.79996 | 28.03596 | 24568 ft | 471 kts | 189° |
| 2026-05-09 12:00 | 45.76753 | 28.02873 | 24808 ft | 472 kts | 189° |
| 2026-05-09 12:00 | 45.73499 | 28.02149 | 25042 ft | 473 kts | 189° |
| 2026-05-09 12:00 | 45.70243 | 28.01426 | 25258 ft | 474 kts | 189° |
| 2026-05-09 12:00 | 45.66980 | 28.00702 | 25426 ft | 475 kts | 189° |
| 2026-05-09 12:01 | 45.63704 | 27.99976 | 25579 ft | 476 kts | 189° |
| 2026-05-09 12:01 | 45.60430 | 27.99251 | 25731 ft | 477 kts | 189° |
| 2026-05-09 12:01 | 45.57143 | 27.98525 | 25861 ft | 478 kts | 189° |
| 2026-05-09 12:01 | 45.53852 | 27.97798 | 25969 ft | 479 kts | 189° |
| 2026-05-09 12:02 | 45.50555 | 27.97070 | 26085 ft | 480 kts | 189° |
| 2026-05-09 12:02 | 45.47203 | 27.96332 | 26178 ft | 481 kts | 189° |
| 2026-05-09 12:02 | 45.43911 | 27.95608 | 26303 ft | 481 kts | 189° |
| 2026-05-09 12:02 | 45.40599 | 27.94879 | 26467 ft | 480 kts | 189° |
| 2026-05-09 12:03 | 45.37297 | 27.94154 | 26624 ft | 479 kts | 189° |
| 2026-05-09 12:03 | 45.34000 | 27.93431 | 26760 ft | 479 kts | 189° |
| 2026-05-09 12:03 | 45.30705 | 27.92709 | 26911 ft | 479 kts | 189° |
| 2026-05-09 12:03 | 45.27419 | 27.91990 | 27082 ft | 478 kts | 189° |
| 2026-05-09 12:04 | 45.24132 | 27.91287 | 27229 ft | 478 kts | 187° |
| 2026-05-09 12:04 | 45.20809 | 27.91079 | 27344 ft | 479 kts | 178° |
| 2026-05-09 12:04 | 45.17500 | 27.91572 | 27518 ft | 478 kts | 171° |
| 2026-05-09 12:04 | 45.14273 | 27.92669 | 27698 ft | 478 kts | 162° |
| 2026-05-09 12:05 | 45.11158 | 27.94318 | 27875 ft | 478 kts | 159° |
| 2026-05-09 12:05 | 45.08066 | 27.96030 | 28054 ft | 477 kts | 159° |
| 2026-05-09 12:05 | 45.04968 | 27.97742 | 28233 ft | 477 kts | 159° |
| 2026-05-09 12:05 | 45.01873 | 27.99428 | 28436 ft | 476 kts | 160° |
| 2026-05-09 12:06 | 44.98821 | 28.01068 | 28648 ft | 476 kts | 160° |
| 2026-05-09 12:06 | 44.95724 | 28.02715 | 28816 ft | 475 kts | 160° |
| 2026-05-09 12:06 | 44.92588 | 28.04377 | 29002 ft | 475 kts | 160° |
| 2026-05-09 12:06 | 44.89503 | 28.06008 | 29198 ft | 474 kts | 160° |
| 2026-05-09 12:07 | 44.86417 | 28.07641 | 29395 ft | 474 kts | 160° |
| 2026-05-09 12:07 | 44.83326 | 28.09275 | 29582 ft | 473 kts | 160° |
| 2026-05-09 12:07 | 44.80207 | 28.10717 | 29789 ft | 472 kts | 164° |
| 2026-05-09 12:07 | 44.77088 | 28.11926 | 29993 ft | 471 kts | 165° |
| 2026-05-09 12:08 | 44.73920 | 28.13090 | 30160 ft | 471 kts | 166° |
| 2026-05-09 12:08 | 44.70749 | 28.14238 | 30294 ft | 470 kts | 166° |
| 2026-05-09 12:08 | 44.67584 | 28.15388 | 30451 ft | 470 kts | 166° |
| 2026-05-09 12:08 | 44.64421 | 28.16550 | 30620 ft | 469 kts | 165° |
| 2026-05-09 12:09 | 44.61277 | 28.17716 | 30797 ft | 468 kts | 165° |
| 2026-05-09 12:09 | 44.58126 | 28.18891 | 30952 ft | 468 kts | 165° |
| 2026-05-09 12:09 | 44.54990 | 28.20064 | 31115 ft | 467 kts | 165° |
| 2026-05-09 12:10 | 44.45597 | 28.23578 | 31630 ft | 464 kts | 165° |
| 2026-05-09 12:10 | 44.42482 | 28.24739 | 31763 ft | 464 kts | 165° |
| 2026-05-09 12:10 | 44.39356 | 28.25904 | 31896 ft | 464 kts | 165° |
| 2026-05-09 12:11 | 44.36240 | 28.27062 | 32015 ft | 464 kts | 165° |
| 2026-05-09 12:11 | 44.30004 | 28.29378 | 32037 ft | 464 kts | 165° |
| 2026-05-09 12:12 | 44.23771 | 28.31687 | 32043 ft | 462 kts | 165° |
| 2026-05-09 12:12 | 44.17554 | 28.33985 | 32036 ft | 462 kts | 165° |
| 2026-05-09 12:13 | 44.11331 | 28.36281 | 32029 ft | 463 kts | 165° |
| 2026-05-09 12:13 | 44.06160 | 28.38184 | 32025 ft | 463 kts | 165° |
| 2026-05-09 12:14 | 43.99931 | 28.40473 | 32021 ft | 463 kts | 165° |
| 2026-05-09 12:14 | 43.93700 | 28.42757 | 32025 ft | 463 kts | 165° |
| 2026-05-09 12:15 | 43.87463 | 28.45039 | 32025 ft | 464 kts | 165° |
| 2026-05-09 12:15 | 43.81212 | 28.47321 | 32026 ft | 464 kts | 165° |
| 2026-05-09 12:16 | 43.74966 | 28.49597 | 32025 ft | 465 kts | 165° |
| 2026-05-09 12:16 | 43.68740 | 28.52050 | 32026 ft | 465 kts | 162° |
| 2026-05-09 12:17 | 43.62574 | 28.54794 | 32031 ft | 466 kts | 162° |
| 2026-05-09 12:17 | 43.56393 | 28.57537 | 32043 ft | 467 kts | 163° |
| 2026-05-09 12:18 | 43.50140 | 28.60257 | 32042 ft | 469 kts | 163° |
| 2026-05-09 12:18 | 43.43956 | 28.62921 | 32042 ft | 470 kts | 163° |
| 2026-05-09 12:19 | 43.37662 | 28.65625 | 32039 ft | 471 kts | 163° |
| 2026-05-09 12:19 | 43.31408 | 28.68309 | 32038 ft | 472 kts | 164° |
| 2026-05-09 12:20 | 43.25413 | 28.70878 | 32038 ft | 473 kts | 164° |
| 2026-05-09 12:20 | 43.19172 | 28.73546 | 32036 ft | 474 kts | 164° |
| 2026-05-09 12:21 | 43.12870 | 28.76234 | 32039 ft | 474 kts | 164° |
| 2026-05-09 12:21 | 43.06529 | 28.78729 | 32027 ft | 474 kts | 171° |
| 2026-05-09 12:22 | 42.99993 | 28.79213 | 32041 ft | 471 kts | 183° |
| 2026-05-09 12:22 | 42.93399 | 28.78937 | 32030 ft | 471 kts | 183° |
| 2026-05-09 12:23 | 42.86840 | 28.78692 | 32030 ft | 472 kts | 183° |
| 2026-05-09 12:23 | 42.80275 | 28.78500 | 32031 ft | 473 kts | 182° |
| 2026-05-09 12:24 | 42.73681 | 28.78327 | 32025 ft | 474 kts | 182° |
| 2026-05-09 12:24 | 42.67079 | 28.78156 | 32026 ft | 475 kts | 183° |
| 2026-05-09 12:25 | 42.64912 | 28.78099 | 32028 ft | 475 kts | 183° |
| 2026-05-09 12:30 | 42.62878 | 28.78045 | 32025 ft | 473 kts | 183° |
| 2026-05-09 12:31 | 42.53148 | 28.77791 | 32023 ft | 462 kts | 183° |
| 2026-05-09 12:32 | 42.46696 | 28.77620 | 32023 ft | 460 kts | 183° |
| 2026-05-09 12:32 | 42.40305 | 28.77451 | 32023 ft | 459 kts | 183° |
| 2026-05-09 12:33 | 42.33968 | 28.77284 | 32032 ft | 459 kts | 183° |
| 2026-05-09 12:33 | 42.27579 | 28.77116 | 32034 ft | 460 kts | 184° |
| 2026-05-09 12:34 | 42.21167 | 28.76948 | 32035 ft | 461 kts | 184° |
| 2026-05-09 12:34 | 42.14794 | 28.76782 | 32021 ft | 464 kts | 184° |
| 2026-05-09 12:35 | 42.08324 | 28.76613 | 32030 ft | 466 kts | 184° |
| 2026-05-09 12:35 | 42.01783 | 28.76758 | 32043 ft | 469 kts | 180° |
| 2026-05-09 12:36 | 41.95246 | 28.77112 | 32027 ft | 470 kts | 181° |
| 2026-05-09 12:36 | 41.88704 | 28.77388 | 32027 ft | 470 kts | 181° |
| 2026-05-09 12:37 | 41.82160 | 28.77830 | 32028 ft | 471 kts | 178° |
| 2026-05-09 12:37 | 41.75614 | 28.78557 | 31885 ft | 474 kts | 179° |
| 2026-05-09 12:37 | 41.72286 | 28.78911 | 31309 ft | 471 kts | 176° |
| 2026-05-09 12:38 | 41.69137 | 28.80047 | 30992 ft | 469 kts | 158° |
| 2026-05-09 12:38 | 41.66367 | 28.82248 | 30901 ft | 461 kts | 143° |
| 2026-05-09 12:38 | 41.64128 | 28.85255 | 30744 ft | 453 kts | 132° |
| 2026-05-09 12:38 | 41.62144 | 28.88487 | 30505 ft | 445 kts | 130° |
| 2026-05-09 12:39 | 41.60223 | 28.91694 | 30104 ft | 442 kts | 130° |
| 2026-05-09 12:39 | 41.58290 | 28.94894 | 29520 ft | 442 kts | 131° |
| 2026-05-09 12:39 | 41.56339 | 28.98070 | 28969 ft | 442 kts | 131° |
| 2026-05-09 12:39 | 41.54375 | 29.01225 | 28409 ft | 442 kts | 132° |
| 2026-05-09 12:40 | 41.52399 | 29.04379 | 27851 ft | 442 kts | 132° |
| 2026-05-09 12:40 | 41.50431 | 29.07508 | 27295 ft | 440 kts | 133° |
| 2026-05-09 12:40 | 41.48180 | 29.10225 | 26740 ft | 434 kts | 150° |
| 2026-05-09 12:40 | 41.45519 | 29.12074 | 26248 ft | 428 kts | 157° |
| 2026-05-09 12:41 | 41.42828 | 29.13738 | 25731 ft | 428 kts | 158° |
| 2026-05-09 12:41 | 41.40120 | 29.15433 | 25225 ft | 431 kts | 157° |
| 2026-05-09 12:41 | 41.37414 | 29.17174 | 24736 ft | 431 kts | 156° |
| 2026-05-09 12:41 | 41.34785 | 29.19083 | 24364 ft | 426 kts | 145° |
| 2026-05-09 12:42 | 41.32718 | 29.21843 | 24260 ft | 411 kts | 126° |
| 2026-05-09 12:42 | 41.31399 | 29.25134 | 24169 ft | 396 kts | 111° |
| 2026-05-09 12:42 | 41.30755 | 29.28567 | 24060 ft | 382 kts | 96° |
| 2026-05-09 12:42 | 41.30686 | 29.32086 | 23806 ft | 372 kts | 89° |
| 2026-05-09 12:43 | 41.30753 | 29.35499 | 23274 ft | 369 kts | 89° |
| 2026-05-09 12:43 | 41.30822 | 29.38911 | 22665 ft | 368 kts | 87° |
| 2026-05-09 12:43 | 41.31358 | 29.42224 | 22060 ft | 367 kts | 65° |
| 2026-05-09 12:43 | 41.32690 | 29.45073 | 21554 ft | 362 kts | 47° |
| 2026-05-09 12:44 | 41.34594 | 29.47216 | 21053 ft | 356 kts | 33° |
| 2026-05-09 12:44 | 41.36674 | 29.49065 | 20541 ft | 354 kts | 32° |
| 2026-05-09 12:44 | 41.38723 | 29.50871 | 20025 ft | 353 kts | 32° |
| 2026-05-09 12:44 | 41.40751 | 29.52683 | 19548 ft | 351 kts | 33° |
| 2026-05-09 12:45 | 41.42768 | 29.54514 | 19070 ft | 348 kts | 33° |
| 2026-05-09 12:45 | 41.44728 | 29.56390 | 18585 ft | 347 kts | 42° |
| 2026-05-09 12:45 | 41.46179 | 29.58944 | 18040 ft | 347 kts | 66° |
| 2026-05-09 12:45 | 41.46782 | 29.62012 | 17542 ft | 341 kts | 89° |
| 2026-05-09 12:46 | 41.46528 | 29.65107 | 17055 ft | 334 kts | 109° |
| 2026-05-09 12:46 | 41.45557 | 29.67868 | 16539 ft | 328 kts | 126° |
| 2026-05-09 12:46 | 41.44277 | 29.70362 | 16059 ft | 325 kts | 128° |
| 2026-05-09 12:46 | 41.42961 | 29.72806 | 15579 ft | 323 kts | 128° |
| 2026-05-09 12:47 | 41.41652 | 29.75245 | 15182 ft | 324 kts | 128° |
| 2026-05-09 12:47 | 41.40361 | 29.77691 | 14960 ft | 320 kts | 127° |
| 2026-05-09 12:47 | 41.39511 | 29.79316 | 14909 ft | 313 kts | 127° |
| 2026-05-09 12:47 | 41.37903 | 29.82398 | 14763 ft | 301 kts | 127° |
| 2026-05-09 12:48 | 41.37119 | 29.83961 | 14662 ft | 298 kts | 123° |
| 2026-05-09 12:48 | 41.36175 | 29.86399 | 14444 ft | 295 kts | 117° |
| 2026-05-09 12:48 | 41.35102 | 29.88678 | 14115 ft | 290 kts | 141° |
| 2026-05-09 12:48 | 41.33372 | 29.89892 | 13791 ft | 279 kts | 172° |
| 2026-05-09 12:49 | 41.31471 | 29.89950 | 13494 ft | 272 kts | 192° |
| 2026-05-09 12:49 | 41.29694 | 29.89193 | 13173 ft | 267 kts | 210° |
| 2026-05-09 12:49 | 41.28079 | 29.88002 | 12884 ft | 265 kts | 212° |
| 2026-05-09 12:49 | 41.26507 | 29.86783 | 12759 ft | 256 kts | 212° |
| 2026-05-09 12:50 | 41.25017 | 29.85623 | 12684 ft | 242 kts | 212° |
| 2026-05-09 12:50 | 41.23603 | 29.84526 | 12566 ft | 229 kts | 212° |
| 2026-05-09 12:50 | 41.22230 | 29.83466 | 12200 ft | 227 kts | 212° |
| 2026-05-09 12:50 | 41.20872 | 29.82419 | 11858 ft | 225 kts | 212° |
| 2026-05-09 12:51 | 41.19520 | 29.81380 | 11458 ft | 224 kts | 212° |
| 2026-05-09 12:51 | 41.18172 | 29.80347 | 11030 ft | 225 kts | 212° |
| 2026-05-09 12:51 | 41.16784 | 29.79283 | 10358 ft | 235 kts | 212° |
| 2026-05-09 12:51 | 41.15356 | 29.78192 | 9746 ft | 239 kts | 212° |
| 2026-05-09 12:52 | 41.14111 | 29.77243 | 9353 ft | 230 kts | 212° |
| 2026-05-09 12:52 | 41.12853 | 29.76282 | 8613 ft | 239 kts | 212° |
| 2026-05-09 12:52 | 41.11373 | 29.75153 | 7683 ft | 249 kts | 211° |
| 2026-05-09 12:52 | 41.09850 | 29.73995 | 6767 ft | 255 kts | 211° |
| 2026-05-09 12:53 | 41.08300 | 29.72816 | 5787 ft | 258 kts | 211° |
| 2026-05-09 12:53 | 41.06740 | 29.71630 | 4831 ft | 259 kts | 211° |
| 2026-05-09 12:53 | 41.05182 | 29.70448 | 4013 ft | 254 kts | 211° |
| 2026-05-09 12:53 | 41.03879 | 29.69129 | 3759 ft | 218 kts | 228° |
| 2026-05-09 12:54 | 41.03058 | 29.67587 | 3581 ft | 189 kts | 238° |
| 2026-05-09 12:54 | 41.02440 | 29.66203 | 3509 ft | 166 kts | 239° |
| 2026-05-09 12:54 | 41.01849 | 29.64868 | 3529 ft | 176 kts | 239° |
| 2026-05-09 12:54 | 41.01217 | 29.63450 | 3507 ft | 178 kts | 238° |
| 2026-05-09 12:55 | 41.00591 | 29.62054 | 3505 ft | 177 kts | 238° |
| 2026-05-09 12:55 | 40.99963 | 29.60658 | 3502 ft | 175 kts | 238° |
| 2026-05-09 12:55 | 40.99333 | 29.59277 | 3517 ft | 176 kts | 237° |
| 2026-05-09 12:55 | 40.98702 | 29.57871 | 3508 ft | 179 kts | 240° |
| 2026-05-09 12:56 | 40.98119 | 29.56417 | 3497 ft | 179 kts | 242° |
| 2026-05-09 12:56 | 40.97558 | 29.54939 | 3504 ft | 179 kts | 243° |
| 2026-05-09 12:56 | 40.97011 | 29.53468 | 3488 ft | 179 kts | 243° |
| 2026-05-09 12:56 | 40.96472 | 29.52008 | 3469 ft | 171 kts | 243° |
| 2026-05-09 12:57 | 40.95961 | 29.50619 | 3416 ft | 168 kts | 243° |
| 2026-05-09 12:57 | 40.95443 | 29.49212 | 3179 ft | 171 kts | 243° |
| 2026-05-09 12:57 | 40.94923 | 29.47798 | 2920 ft | 170 kts | 244° |
| 2026-05-09 12:57 | 40.94408 | 29.46400 | 2663 ft | 168 kts | 244° |
| 2026-05-09 12:58 | 40.93895 | 29.45004 | 2405 ft | 168 kts | 244° |
| 2026-05-09 12:58 | 40.93390 | 29.43629 | 2137 ft | 167 kts | 244° |
| 2026-05-09 12:58 | 40.92882 | 29.42250 | 1881 ft | 167 kts | 245° |
| 2026-05-09 12:58 | 40.92373 | 29.40863 | 1640 ft | 169 kts | 244° |
| 2026-05-09 12:59 | 40.91858 | 29.39461 | 1343 ft | 166 kts | 244° |
| 2026-05-09 12:59 | 40.91358 | 29.38077 | 1130 ft | 162 kts | 245° |
| 2026-05-09 12:59 | 40.90881 | 29.36764 | 895 ft | 157 kts | 244° |
| 2026-05-09 12:59 | 40.90413 | 29.35473 | 619 ft | 153 kts | 243° |
| 2026-05-09 13:00 | 40.89950 | 29.34229 | 380 ft | 148 kts | 244° |
| 2026-05-09 13:00 | 40.89513 | 29.33045 | 295 ft | 130 kts | 244° |
| 2026-05-09 13:00 | 40.89158 | 29.32084 | 299 ft | 98 kts | 244° |
| 2026-05-09 13:00 | 40.88886 | 29.31347 | 298 ft | 71 kts | 244° |
| 2026-05-09 13:01 | 40.88807 | 29.30931 | 292 ft | 27 kts | 274° |
| 2026-05-09 13:01 | 40.88822 | 29.30768 | 294 ft | 11 kts | 301° |
| 2026-05-09 13:01 | 40.88868 | 29.30745 | 289 ft | 1 kts | 40° |
| 2026-05-09 13:01 | 40.88881 | 29.30774 | 291 ft | 6 kts | 62° |
| 2026-05-09 13:02 | 40.88909 | 29.30845 | 294 ft | 12 kts | 63° |
| 2026-05-09 13:02 | 40.88957 | 29.30972 | 296 ft | 20 kts | 64° |
| 2026-05-09 13:02 | 40.89027 | 29.31160 | 297 ft | 23 kts | 64° |
| 2026-05-09 13:02 | 40.89096 | 29.31349 | 301 ft | 21 kts | 64° |
| 2026-05-09 13:03 | 40.89168 | 29.31434 | 302 ft | 10 kts | 350° |
| 2026-05-09 13:03 | 40.89232 | 29.31443 | 301 ft | 8 kts | 37° |
| 2026-05-09 13:03 | 40.89263 | 29.31514 | 300 ft | 11 kts | 63° |
| 2026-05-09 13:03 | 40.89307 | 29.31569 | 302 ft | 4 kts | 360° |
| 2026-05-09 13:04 | 40.89345 | 29.31548 | 300 ft | 11 kts | 332° |
| 2026-05-09 13:04 | 40.89430 | 29.31499 | 302 ft | 17 kts | 332° |
| 2026-05-09 13:04 | 40.89547 | 29.31421 | 307 ft | 18 kts | 333° |
| 2026-05-09 13:04 | 40.89658 | 29.31350 | 310 ft | 17 kts | 334° |
| 2026-05-09 13:05 | 40.89765 | 29.31282 | 310 ft | 17 kts | 334° |
| 2026-05-09 13:05 | 40.89792 | 29.31257 | 310 ft | 1 kts | 277° |
| 2026-05-09 13:05 | 40.89769 | 29.31186 | 310 ft | 19 kts | 245° |
| 2026-05-09 13:05 | 40.89768 | 29.31132 | 310 ft | 3 kts | 310° |
| 2026-05-09 13:06 | 40.89822 | 29.31103 | 310 ft | 14 kts | 335° |
| 2026-05-09 13:06 | 40.89933 | 29.31045 | 310 ft | 18 kts | 340° |
| 2026-05-09 13:06 | 40.90044 | 29.30981 | 310 ft | 17 kts | 334° |
| 2026-05-09 13:06 | 40.90148 | 29.30914 | 310 ft | 16 kts | 334° |
| 2026-05-09 13:07 | 40.90246 | 29.30890 | 310 ft | 13 kts | 32° |
| 2026-05-09 13:07 | 40.90279 | 29.30973 | 309 ft | 11 kts | 64° |
| 2026-05-09 13:07 | 40.90324 | 29.31097 | 310 ft | 16 kts | 64° |
| 2026-05-09 13:07 | 40.90371 | 29.31223 | 309 ft | 15 kts | 63° |
| 2026-05-09 13:08 | 40.90416 | 29.31345 | 310 ft | 14 kts | 65° |
| 2026-05-09 13:08 | 40.90457 | 29.31461 | 310 ft | 13 kts | 71° |
| 2026-05-09 13:08 | 40.90464 | 29.31532 | 309 ft | 7 kts | 89° |
| 2026-05-09 13:08 | 40.90437 | 29.31574 | 310 ft | 6 kts | 153° |
| 2026-05-09 13:09 | 40.90422 | 29.31585 | 310 ft | 0 kts | 154° |